CJU7 weather

Edam Airport
Edam, Saskatchewan, Canada

Public forecast

Using degrees Celsius for public forecast. Weather courtesy of forecast.io.

METAR (pilot weather report)

Closest report is North Battleford Airport, 31.8 nm (58.9 km) SE. Retrieved 2019/04/24 09:25 UTC (26 minutes ago):

CYQW 240925Z AUTO 30005KT 9SM CLR 02/M07 A2983 RMK SLP115

TAF (pilot weather forecast)

Closest forecast is North Battleford Airport, 31.8 nm (58.9 km) SE. Retrieved 2019/04/24 06:39 UTC (3 hours ago):

TAF CYQW 240538Z 2406/2418 32008KT P6SM FEW120 BECMG 2414/2416 31012G22KT RMK FCST BASED ON AUTO OBS. NXT FCST BY 241200Z